Time;durP1;ratioP1;P1;durP2;ratioP2;P2;SDS_P1;SDS_P2;PMS_P1;PMS_P2;Temp;Humidity;BMP_temperature;BMP_pressure;BME280_temperature;BME280_humidity;BME280_pressure;Samples;Min_cycle;Max_cycle;Signal;HPM_P1;HPM_P2
2023/07/17 00:01:29;;;;;;;6.90;3.20;;;;;;;22.19;56.78;96425.78;5010152;28;20175;-72
2023/07/17 00:03:54;;;;;;;6.87;3.70;;;;;;;22.13;56.93;96419.13;5028484;28;20559;-71
2023/07/17 00:06:20;;;;;;;5.20;4.07;;;;;;;22.16;56.57;96426.06;5028925;28;20163;-71
2023/07/17 00:08:45;;;;;;;5.87;4.43;;;;;;;22.11;56.44;96417.59;5028540;28;20172;-71
2023/07/17 00:11:10;;;;;;;5.40;3.60;;;;;;;22.14;56.37;96414.66;5029106;28;20168;-70
2023/07/17 00:13:36;;;;;;;4.67;3.60;;;;;;;22.16;56.14;96408.19;5028513;28;20191;-70
2023/07/17 00:16:01;;;;;;;6.30;3.80;;;;;;;22.47;55.53;96409.94;5028435;28;20207;-70
2023/07/17 00:18:26;;;;;;;10.70;4.37;;;;;;;22.60;55.14;96411.31;5028837;28;20254;-71
2023/07/17 00:20:52;;;;;;;6.63;3.80;;;;;;;22.64;54.84;96417.25;5028193;28;20172;-71
2023/07/17 00:23:17;;;;;;;4.03;3.63;;;;;;;22.69;54.87;96400.78;5028410;28;20862;-71
2023/07/17 00:25:43;;;;;;;16.37;4.00;;;;;;;22.74;54.58;96398.50;5028599;28;20314;-70
2023/07/17 00:28:08;;;;;;;12.27;5.97;;;;;;;22.75;54.33;96401.06;5010741;28;20224;-71
2023/07/17 00:30:33;;;;;;;4.03;3.10;;;;;;;22.56;54.63;96395.69;5028070;28;20178;-70
2023/07/17 00:32:59;;;;;;;18.33;4.50;;;;;;;22.57;54.67;96386.69;5028253;28;20203;-70
2023/07/17 00:35:24;;;;;;;9.23;3.87;;;;;;;22.48;54.60;96393.72;5028345;28;20186;-72
2023/07/17 00:37:49;;;;;;;6.83;3.30;;;;;;;22.42;54.84;96402.34;5028060;28;20759;-71
2023/07/17 00:40:18;;;;;;;7.40;3.00;;;;;;;22.51;54.45;96405.97;5028210;28;20173;-75
2023/07/17 00:42:43;;;;;;;8.17;3.30;;;;;;;22.49;54.71;96406.13;5028990;28;20188;-73
2023/07/17 00:45:08;;;;;;;7.50;3.97;;;;;;;22.54;54.35;96406.56;5030173;28;20421;-70
2023/07/17 00:47:34;;;;;;;17.60;4.90;;;;;;;22.65;54.02;96407.38;5029522;28;20245;-71
2023/07/17 00:50:00;;;;;;;11.90;4.00;;;;;;;22.59;54.03;96415.00;5027805;28;20854;-71
2023/07/17 00:52:28;;;;;;;9.60;4.70;;;;;;;22.38;54.68;96415.13;5028037;28;20195;-71
2023/07/17 00:54:54;;;;;;;3.97;3.57;;;;;;;22.54;54.27;96414.56;5028263;28;20402;-72
2023/07/17 00:57:19;;;;;;;10.60;3.93;;;;;;;22.29;55.21;96423.97;5027986;28;20454;-71
2023/07/17 00:59:45;;;;;;;6.70;4.07;;;;;;;22.32;55.18;96423.72;5026998;28;20175;-72
2023/07/17 01:02:12;;;;;;;6.20;3.90;;;;;;;22.19;55.72;96428.44;5027619;28;20163;-72
2023/07/17 01:04:44;;;;;;;10.43;4.03;;;;;;;22.15;55.47;96432.38;5027764;28;20493;-71
2023/07/17 01:07:09;;;;;;;4.40;3.33;;;;;;;22.15;55.38;96435.88;5027487;28;21277;-71
2023/07/17 01:09:35;;;;;;;6.83;3.17;;;;;;;22.03;55.77;96454.88;5027594;28;20461;-71
2023/07/17 01:12:00;;;;;;;10.27;4.10;;;;;;;21.93;55.70;96461.03;5027498;28;20261;-71
2023/07/17 01:14:26;;;;;;;5.80;3.50;;;;;;;21.88;55.89;96462.44;5027130;28;20195;-71
2023/07/17 01:16:51;;;;;;;7.23;4.00;;;;;;;21.78;56.13;96465.06;5027187;28;20195;-71
2023/07/17 01:19:17;;;;;;;5.20;3.90;;;;;;;21.51;57.26;96462.97;5026890;28;20202;-71
2023/07/17 01:21:53;;;;;;;4.93;3.67;;;;;;;21.53;57.79;96466.34;5027259;28;20190;-71
2023/07/17 01:24:19;;;;;;;5.40;3.30;;;;;;;21.53;57.62;96453.84;5026872;28;20201;-72
2023/07/17 01:26:44;;;;;;;8.03;4.30;;;;;;;21.62;57.29;96457.53;5026980;28;20407;-71
2023/07/17 01:29:10;;;;;;;7.50;4.00;;;;;;;21.84;56.71;96447.63;5026871;28;20747;-71
2023/07/17 01:31:40;;;;;;;8.93;3.57;;;;;;;22.12;55.84;96446.03;5027130;28;20663;-70
2023/07/17 01:34:05;;;;;;;13.80;4.30;;;;;;;22.52;54.72;96426.41;5027056;28;20203;-70
2023/07/17 01:36:30;;;;;;;4.40;3.60;;;;;;;22.55;54.60;96431.47;5027122;28;20467;-71
2023/07/17 01:38:56;;;;;;;6.17;3.30;;;;;;;22.40;54.72;96437.22;5026831;28;20170;-71
2023/07/17 01:41:23;;;;;;;7.47;3.30;;;;;;;22.00;55.59;96447.97;5027912;28;20183;-72
2023/07/17 01:43:50;;;;;;;4.90;3.13;;;;;;;21.89;56.21;96445.41;5026776;28;20270;-71
2023/07/17 01:46:16;;;;;;;6.20;3.97;;;;;;;21.67;56.79;96417.91;5027183;28;20410;-70
2023/07/17 01:48:41;;;;;;;5.10;3.80;;;;;;;21.78;56.77;96425.00;5042768;28;20740;-71
2023/07/17 01:51:09;;;;;;;4.67;3.53;;;;;;;21.69;56.43;96442.66;5047049;28;20174;-73
2023/07/17 01:53:35;;;;;;;7.40;3.70;;;;;;;21.62;56.79;96441.53;5056748;28;20874;-71
2023/07/17 01:56:00;;;;;;;5.13;4.30;;;;;;;21.19;57.75;96447.91;5062551;28;20464;-71
2023/07/17 01:58:26;;;;;;;4.20;3.57;;;;;;;21.22;57.72;96447.63;5055486;28;20190;-71
2023/07/17 02:00:54;;;;;;;4.60;3.77;;;;;;;21.26;57.66;96445.53;5056094;28;20170;-71
2023/07/17 02:03:19;;;;;;;11.73;4.33;;;;;;;21.20;57.41;96444.25;5053283;28;20264;-71
2023/07/17 02:05:44;;;;;;;8.93;4.33;;;;;;;21.31;57.64;96446.00;5047333;28;20410;-71
2023/07/17 02:08:10;;;;;;;5.37;4.10;;;;;;;21.36;57.42;96441.94;5047108;28;20189;-71
2023/07/17 02:10:40;;;;;;;4.00;3.60;;;;;;;21.52;56.87;96440.63;5046307;28;20249;-71
2023/07/17 02:13:06;;;;;;;14.40;4.00;;;;;;;21.60;56.91;96443.47;5045580;28;20239;-71
2023/07/17 02:15:31;;;;;;;3.47;3.17;;;;;;;21.42;57.63;96456.59;5046006;28;20401;-71
2023/07/17 02:17:56;;;;;;;4.70;3.67;;;;;;;21.26;57.71;96451.72;5045992;28;20183;-71
2023/07/17 02:20:22;;;;;;;8.17;4.00;;;;;;;20.75;59.16;96462.34;5045731;28;20173;-70
2023/07/17 02:22:47;;;;;;;8.27;3.57;;;;;;;20.84;59.66;96473.06;5046029;28;20941;-72
2023/07/17 02:25:12;;;;;;;13.07;4.30;;;;;;;21.06;58.91;96471.25;5046362;28;20175;-71
2023/07/17 02:27:38;;;;;;;11.17;3.60;;;;;;;21.25;58.78;96487.38;5046356;28;20245;-72
2023/07/17 02:30:04;;;;;;;7.00;3.80;;;;;;;21.26;58.57;96481.09;5046097;28;20619;-72
2023/07/17 02:32:31;;;;;;;4.90;4.23;;;;;;;20.90;61.36;96467.19;5046263;28;20773;-71
2023/07/17 02:34:56;;;;;;;5.50;4.30;;;;;;;20.85;61.63;96452.56;5046690;28;20416;-72
2023/07/17 02:37:22;;;;;;;6.63;3.77;;;;;;;21.75;58.06;96446.63;5046041;28;21084;-71
2023/07/17 02:39:48;;;;;;;9.83;4.50;;;;;;;21.96;57.47;96454.56;5045800;28;20174;-72
2023/07/17 02:42:13;;;;;;;4.40;3.50;;;;;;;21.80;57.21;96455.06;5046420;28;20417;-72
2023/07/17 02:44:38;;;;;;;6.03;3.90;;;;;;;21.74;57.53;96447.59;5046231;28;20179;-71
2023/07/17 02:47:04;;;;;;;8.63;3.93;;;;;;;21.13;59.39;96464.41;5043552;28;20173;-76
2023/07/17 02:49:29;;;;;;;7.47;4.30;;;;;;;21.36;59.15;96473.13;5025298;28;20530;-71
2023/07/17 02:51:55;;;;;;;10.97;3.83;;;;;;;21.55;58.89;96481.25;5026012;28;20255;-71
2023/07/17 02:54:21;;;;;;;6.13;3.93;;;;;;;21.70;58.54;96481.75;5025781;28;20703;-71
2023/07/17 02:56:48;;;;;;;6.70;4.07;;;;;;;21.93;57.71;96470.88;5025518;28;20191;-71
2023/07/17 02:59:16;;;;;;;6.70;3.90;;;;;;;22.12;57.77;96465.56;5025500;28;20418;-76
2023/07/17 03:01:43;;;;;;;7.13;4.10;;;;;;;22.17;57.88;96474.03;5025856;28;20543;-71
2023/07/17 03:04:08;;;;;;;14.03;4.70;;;;;;;22.14;58.18;96490.34;5025604;28;20887;-71
2023/07/17 03:06:34;;;;;;;12.70;5.03;;;;;;;22.02;59.77;96496.78;5025774;28;20413;-71
2023/07/17 03:08:59;;;;;;;7.70;4.20;;;;;;;21.96;60.17;96489.28;5007470;28;20166;-70
2023/07/17 03:11:24;;;;;;;12.80;4.87;;;;;;;21.74;61.20;96471.66;5025705;28;20673;-71
2023/07/17 03:13:50;;;;;;;12.00;4.73;;;;;;;21.93;59.78;96455.69;5025678;28;20202;-70
2023/07/17 03:16:15;;;;;;;7.10;4.20;;;;;;;21.82;61.01;96466.47;5025784;28;20265;-72
2023/07/17 03:18:40;;;;;;;15.37;5.23;;;;;;;21.75;61.08;96487.53;5025578;28;20171;-70
2023/07/17 03:21:06;;;;;;;6.77;4.37;;;;;;;;;;5025775;28;20221;-71
2023/07/17 03:23:31;;;;;;;13.53;5.13;;;;;;;21.50;60.61;96531.56;5027488;28;20976;-71
2023/07/17 03:25:57;;;;;;;10.13;4.23;;;;;;;21.38;60.91;96542.38;5029324;28;20724;-71
2023/07/17 03:28:22;;;;;;;8.23;3.90;;;;;;;21.31;61.86;96556.28;5029399;28;20167;-71
2023/07/17 03:30:47;;;;;;;27.27;5.63;;;;;;;21.07;63.43;96555.66;5029118;28;20570;-71
2023/07/17 03:33:13;;;;;;;7.07;4.57;;;;;;;21.01;64.41;96542.84;5029596;28;20191;-70
2023/07/17 03:35:38;;;;;;;9.00;4.70;;;;;;;21.07;65.05;96547.66;5031796;28;20242;-69
2023/07/17 03:38:04;;;;;;;14.40;5.20;;;;;;;21.05;64.23;96541.63;5029688;28;20179;-70
2023/07/17 03:40:29;;;;;;;7.63;4.50;;;;;;;20.79;65.23;96544.63;5029651;28;20237;-71
2023/07/17 03:42:55;;;;;;;9.13;4.50;;;;;;;20.99;64.95;96539.44;5029485;28;20207;-71
2023/07/17 03:45:20;;;;;;;11.23;4.53;;;;;;;21.15;64.68;96539.84;5029858;28;20521;-70
2023/07/17 03:47:46;;;;;;;10.77;5.17;;;;;;;21.19;66.20;96522.63;5037976;28;20174;-70
2023/07/17 03:50:11;;;;;;;15.80;5.23;;;;;;;21.16;66.02;96509.50;5048687;28;20190;-72
2023/07/17 03:52:57;;;;;;;25.93;5.63;;;;;;;21.23;65.71;96516.03;5027766;28;20191;-72
2023/07/17 03:55:22;;;;;;;13.70;5.50;;;;;;;21.30;65.34;96530.53;4965441;28;20263;-71
2023/07/17 03:57:47;;;;;;;13.53;5.47;;;;;;;21.38;65.51;96537.06;4967037;28;20488;-71
2023/07/17 04:00:13;;;;;;;12.00;4.80;;;;;;;21.66;63.76;96546.25;4965456;28;20193;-71
2023/07/17 04:02:42;;;;;;;14.00;5.60;;;;;;;21.43;65.63;96532.22;4967204;28;20198;-72
2023/07/17 04:05:08;;;;;;;19.03;6.10;;;;;;;21.31;66.48;96545.59;4967363;28;20170;-69
2023/07/17 04:07:33;;;;;;;12.77;6.13;;;;;;;21.53;64.96;96543.78;4967470;28;20823;-71
2023/07/17 04:09:59;;;;;;;8.63;4.97;;;;;;;21.49;65.83;96545.88;4967195;28;20192;-70
2023/07/17 04:12:24;;;;;;;46.27;8.20;;;;;;;21.65;64.75;96552.56;4967005;28;20301;-71
2023/07/17 04:14:50;;;;;;;16.73;5.50;;;;;;;21.79;63.87;96546.88;4967529;28;20220;-70
2023/07/17 04:17:15;;;;;;;16.60;5.63;;;;;;;21.66;64.49;96544.44;4967309;28;20319;-71
2023/07/17 04:19:40;;;;;;;23.33;7.23;;;;;;;21.80;63.73;96545.06;4965392;28;20189;-71
2023/07/17 04:22:06;;;;;;;15.37;5.17;;;;;;;21.80;63.38;96551.22;4950389;28;20628;-71
2023/07/17 04:24:31;;;;;;;10.80;5.43;;;;;;;21.58;64.01;96554.91;4956341;28;20210;-73
2023/07/17 04:26:57;;;;;;;18.70;5.80;;;;;;;21.45;63.91;96549.78;4953732;28;20206;-72
2023/07/17 04:29:22;;;;;;;13.23;5.77;;;;;;;21.36;63.52;96543.38;4970234;28;20180;-72
2023/07/17 04:31:48;;;;;;;13.43;4.70;;;;;;;21.40;63.31;96552.00;4975287;28;20278;-71
2023/07/17 04:34:14;;;;;;;24.80;6.30;;;;;;;21.34;63.60;96563.19;5005049;28;20188;-71
2023/07/17 04:36:39;;;;;;;27.67;5.87;;;;;;;21.26;63.67;96569.16;5024342;28;20202;-71
2023/07/17 04:39:05;;;;;;;29.90;6.80;;;;;;;21.43;63.31;96575.78;5025566;28;20186;-70
2023/07/17 04:41:31;;;;;;;9.53;5.00;;;;;;;21.36;64.44;96571.91;5025151;28;21003;-71
2023/07/17 04:43:56;;;;;;;11.20;5.33;;;;;;;21.31;64.91;96558.94;5025885;28;20576;-72
2023/07/17 04:46:22;;;;;;;11.57;5.07;;;;;;;21.64;63.76;96556.22;5025377;28;20221;-70
2023/07/17 04:48:47;;;;;;;10.47;5.77;;;;;;;21.46;64.73;96564.81;5042165;28;20178;-70
2023/07/17 04:51:12;;;;;;;15.30;5.00;;;;;;;21.34;65.30;96574.69;5045030;28;20246;-71
2023/07/17 04:53:38;;;;;;;6.73;5.00;;;;;;;21.48;65.09;96573.56;5045244;28;20260;-71
2023/07/17 04:56:03;;;;;;;11.70;5.87;;;;;;;21.44;65.46;96566.78;5045102;28;20202;-70
2023/07/17 04:58:32;;;;;;;19.50;7.33;;;;;;;21.65;65.01;96571.28;5045739;28;20182;-70
2023/07/17 05:00:58;;;;;;;20.13;6.67;;;;;;;21.60;64.61;96571.66;5045043;28;20198;-70
2023/07/17 05:03:24;;;;;;;29.27;7.60;;;;;;;21.72;64.52;96578.63;5044791;28;20502;-71
2023/07/17 05:05:53;;;;;;;46.27;9.27;;;;;;;21.69;64.87;96584.22;5050557;28;20401;-71
2023/07/17 05:08:18;;;;;;;10.43;5.30;;;;;;;21.75;64.51;96588.19;5062516;28;20201;-70
2023/07/17 05:10:44;;;;;;;17.97;6.87;;;;;;;21.68;64.85;96590.53;5059145;28;20849;-72
2023/07/17 05:13:09;;;;;;;9.00;5.40;;;;;;;21.80;64.45;96593.97;5052093;28;20187;-71
2023/07/17 05:15:34;;;;;;;20.13;6.10;;;;;;;21.71;64.70;96587.63;5045802;28;20818;-71
2023/07/17 05:18:00;;;;;;;26.27;7.37;;;;;;;21.71;64.78;96584.13;5044980;28;20293;-70
2023/07/17 05:20:26;;;;;;;28.80;6.70;;;;;;;21.71;64.54;96592.13;5036881;28;20207;-70
2023/07/17 05:22:51;;;;;;;16.80;6.10;;;;;;;21.67;65.20;96593.34;5023523;28;20206;-70
2023/07/17 05:25:16;;;;;;;8.67;6.43;;;;;;;;;;5029210;28;20174;-71
2023/07/17 05:27:42;;;;;;;14.27;5.57;;;;;;;21.70;64.97;96585.06;5025185;28;20175;-68
2023/07/17 05:30:07;;;;;;;41.10;8.13;;;;;;;21.72;64.78;96583.97;5024029;28;20246;-72
2023/07/17 05:32:33;;;;;;;37.80;8.23;;;;;;;21.77;64.14;96596.91;5022399;28;20207;-70
2023/07/17 05:34:58;;;;;;;22.03;6.83;;;;;;;21.74;64.17;96599.88;5024458;28;20610;-69
2023/07/17 05:37:24;;;;;;;40.10;8.60;;;;;;;21.86;64.38;96605.97;5013759;28;20598;-71
2023/07/17 05:39:49;;;;;;;26.70;7.60;;;;;;;21.91;64.01;96603.75;5024097;28;20184;-71
2023/07/17 05:42:15;;;;;;;14.53;5.53;;;;;;;21.61;64.36;96596.53;5024289;28;20193;-73
2023/07/17 05:44:40;;;;;;;7.63;4.90;;;;;;;21.58;64.24;96605.66;5025098;28;20800;-74
2023/07/17 05:47:06;;;;;;;13.70;6.53;;;;;;;21.59;63.64;96603.81;5023644;28;20203;-69
2023/07/17 05:49:31;;;;;;;11.50;5.13;;;;;;;21.71;62.72;96584.13;5023946;28;20373;-70
2023/07/17 05:51:57;;;;;;;40.93;7.03;;;;;;;21.65;63.17;96593.47;5024882;28;20178;-70
2023/07/17 05:54:22;;;;;;;22.53;7.13;;;;;;;22.19;61.36;96608.38;5016061;28;20203;-72
2023/07/17 05:56:48;;;;;;;18.20;6.70;;;;;;;22.69;59.61;96610.28;5023704;28;20206;-71
2023/07/17 05:59:13;;;;;;;17.63;5.80;;;;;;;22.92;58.79;96608.22;5027484;28;20171;-76
2023/07/17 06:01:39;;;;;;;31.60;7.90;;;;;;;23.26;58.19;96610.50;5023020;28;20191;-72
2023/07/17 06:04:04;;;;;;;29.67;6.70;;;;;;;23.17;58.07;96606.88;5026621;28;20252;-69
2023/07/17 06:06:30;;;;;;;17.77;6.00;;;;;;;23.52;57.54;96588.50;5008974;28;20218;-71
2023/07/17 06:08:59;;;;;;;18.53;5.17;;;;;;;23.92;56.41;96595.50;5026867;28;20176;-69
2023/07/17 06:11:25;;;;;;;28.43;7.93;;;;;;;24.02;55.83;96593.63;5026410;28;20773;-71
2023/07/17 06:13:50;;;;;;;25.77;7.37;;;;;;;24.09;55.14;96613.50;5009522;28;20478;-71
2023/07/17 06:16:15;;;;;;;11.47;5.20;;;;;;;24.34;54.22;96608.50;4999955;28;20665;-70
2023/07/17 06:18:41;;;;;;;10.57;5.37;;;;;;;24.34;54.69;96608.50;5026545;28;20540;-69
2023/07/17 06:21:06;;;;;;;12.33;5.27;;;;;;;24.36;54.35;96611.88;5026394;28;20171;-72
2023/07/17 06:23:32;;;;;;;50.40;6.87;;;;;;;24.62;53.73;96602.16;5024154;28;20238;-72
2023/07/17 06:25:57;;;;;;;64.50;9.80;;;;;;;24.74;53.46;96596.59;5020257;28;20736;-70
2023/07/17 06:28:23;;;;;;;56.17;9.10;;;;;;;24.89;52.61;96589.72;5026255;28;20176;-71
2023/07/17 06:30:48;;;;;;;24.33;6.60;;;;;;;24.95;52.59;96591.81;5023837;28;20212;-72
2023/07/17 06:33:13;;;;;;;15.50;4.77;;;;;;;25.14;52.22;96596.19;5026167;28;20203;-70
2023/07/17 06:35:39;;;;;;;23.45;6.03;;;;;;;25.40;51.25;96587.38;5025566;28;20410;-70
2023/07/17 06:38:04;;;;;;;24.50;6.97;;;;;;;25.30;51.75;96598.19;5026043;28;20199;-72
2023/07/17 06:40:30;;;;;;;32.70;7.07;;;;;;;25.32;51.56;96607.81;5016424;28;20188;-72
2023/07/17 06:42:56;;;;;;;12.87;5.50;;;;;;;25.40;50.85;96612.41;5015474;28;20700;-72
2023/07/17 06:45:21;;;;;;;32.33;6.87;;;;;;;25.32;51.12;96605.13;5025695;28;20262;-71
2023/07/17 06:47:46;;;;;;;10.83;4.63;;;;;;;25.42;50.81;96602.34;5018181;28;20498;-70
2023/07/17 06:50:12;;;;;;;18.73;5.60;;;;;;;25.59;50.45;96602.47;5022626;28;20290;-71
2023/07/17 06:52:38;;;;;;;32.83;7.70;;;;;;;25.68;50.18;96596.19;5015286;28;20338;-71
2023/07/17 06:55:05;;;;;;;20.80;6.47;;;;;;;25.92;49.02;96592.84;5019607;28;20238;-71
2023/07/17 06:57:31;;;;;;;27.43;6.20;;;;;;;26.11;48.68;96606.06;5025066;28;20454;-71
2023/07/17 06:59:56;;;;;;;40.07;7.60;;;;;;;26.09;47.94;96605.38;5024980;28;20777;-70
2023/07/17 07:02:22;;;;;;;15.87;5.20;;;;;;;25.83;48.92;96591.06;5028048;28;20179;-71
2023/07/17 07:04:47;;;;;;;9.37;4.40;;;;;;;25.49;49.24;96591.78;5030113;28;20167;-71
2023/07/17 07:07:12;;;;;;;10.67;4.47;;;;;;;25.89;48.06;96593.13;5029769;28;20179;-71
2023/07/17 07:09:38;;;;;;;11.30;4.60;;;;;;;25.88;48.17;96602.22;5024835;28;20658;-70
2023/07/17 07:12:03;;;;;;;21.13;6.50;;;;;;;26.20;47.47;96606.97;5030089;28;20187;-69
2023/07/17 07:14:28;;;;;;;6.43;4.13;;;;;;;26.34;46.91;96602.81;5028632;28;20752;-70
2023/07/17 07:16:54;;;;;;;6.60;4.40;;;;;;;26.15;47.15;96612.81;5025481;28;20938;-70
2023/07/17 07:19:19;;;;;;;10.10;4.20;;;;;;;26.18;47.03;96611.66;5025725;28;20268;-70
2023/07/17 07:21:45;;;;;;;6.80;4.40;;;;;;;26.15;46.22;96610.13;5021525;28;20230;-71
2023/07/17 07:24:10;;;;;;;12.87;5.27;;;;;;;26.26;46.88;96603.63;5009614;28;20199;-70
2023/07/17 07:26:37;;;;;;;9.03;4.30;;;;;;;25.93;47.03;96607.97;5024696;28;20194;-72
2023/07/17 07:29:02;;;;;;;7.37;4.23;;;;;;;26.21;46.28;96616.72;5029115;28;20183;-71
2023/07/17 07:31:28;;;;;;;7.37;4.23;;;;;;;25.96;45.79;96607.63;5027899;28;20446;-71
2023/07/17 07:33:53;;;;;;;8.87;5.00;;;;;;;26.35;45.24;96608.03;5025276;28;20195;-69
2023/07/17 07:36:18;;;;;;;22.10;5.93;;;;;;;26.39;44.91;96613.94;5028453;28;20195;-71
2023/07/17 07:38:44;;;;;;;8.17;5.10;;;;;;;26.30;44.95;96612.22;5016616;28;20985;-70
2023/07/17 07:41:09;;;;;;;11.37;4.83;;;;;;;26.44;44.44;96606.25;5024390;28;20731;-69
2023/07/17 07:43:34;;;;;;;9.70;4.77;;;;;;;26.71;43.67;96610.56;5019787;28;20688;-71
2023/07/17 07:46:00;;;;;;;17.03;4.80;;;;;;;27.02;42.30;96607.28;5012579;28;20240;-71
2023/07/17 07:48:25;;;;;;;34.17;6.87;;;;;;;26.71;43.48;96605.19;5029962;28;20178;-70
2023/07/17 07:50:50;;;;;;;20.60;5.67;;;;;;;26.62;42.91;96608.84;5030114;28;20224;-69
2023/07/17 07:53:16;;;;;;;14.60;4.57;;;;;;;26.47;43.33;96610.44;5027281;28;20279;-71
2023/07/17 07:55:41;;;;;;;11.33;4.27;;;;;;;26.50;43.44;96600.19;5025927;28;20294;-72
2023/07/17 07:58:06;;;;;;;9.50;6.17;;;;;;;26.87;42.89;96600.88;5023790;28;20195;-71
2023/07/17 08:00:32;;;;;;;12.10;4.30;;;;;;;26.77;43.20;96601.84;5027192;28;20701;-72
2023/07/17 08:02:57;;;;;;;7.80;4.40;;;;;;;26.30;43.85;96607.69;5020838;28;20199;-72
2023/07/17 08:05:23;;;;;;;20.60;5.27;;;;;;;26.19;45.08;96616.84;5009995;28;20179;-72
2023/07/17 08:07:48;;;;;;;14.67;5.20;;;;;;;26.57;43.77;96625.47;5027821;28;20187;-71
2023/07/17 08:10:14;;;;;;;17.00;4.50;;;;;;;26.56;43.50;96613.03;5019348;28;20629;-72
2023/07/17 08:12:39;;;;;;;16.73;5.37;;;;;;;26.48;43.78;96622.88;5020388;28;20696;-72
2023/07/17 08:15:07;;;;;;;9.70;4.57;;;;;;;26.67;42.76;96620.00;5028326;28;20183;-71
2023/07/17 08:17:34;;;;;;;16.90;5.60;;;;;;;26.84;42.51;96623.59;5027934;28;20239;-71
2023/07/17 08:19:59;;;;;;;29.57;5.53;;;;;;;27.20;41.44;96615.28;5027996;28;20421;-70
2023/07/17 08:22:24;;;;;;;16.13;5.13;;;;;;;27.47;41.16;96610.59;5028427;28;20426;-72
2023/07/17 08:24:50;;;;;;;6.17;3.70;;;;;;;27.13;38.81;96611.53;5029808;28;20175;-72
2023/07/17 08:27:15;;;;;;;10.07;4.53;;;;;;;27.71;38.10;96604.34;5020594;28;20282;-71
2023/07/17 08:29:40;;;;;;;7.00;4.10;;;;;;;27.83;38.86;96617.38;5018904;28;20179;-71
2023/07/17 08:32:06;;;;;;;11.83;4.53;;;;;;;27.62;39.69;96617.00;5026398;28;20548;-70
2023/07/17 08:34:31;;;;;;;18.10;4.97;;;;;;;27.72;38.35;96608.75;5024827;28;20172;-72
2023/07/17 08:36:57;;;;;;;11.33;4.40;;;;;;;27.75;38.24;96609.25;5026502;28;20195;-72
2023/07/17 08:39:22;;;;;;;13.77;5.03;;;;;;;27.37;39.69;96619.69;5023265;28;20815;-70
2023/07/17 08:41:50;;;;;;;6.47;4.07;;;;;;;26.89;40.40;96623.09;5024897;28;20614;-71
2023/07/17 08:44:19;;;;;;;13.60;4.83;;;;;;;27.10;39.51;96620.78;5028416;28;20195;-71
2023/07/17 08:46:46;;;;;;;32.70;6.60;;;;;;;27.27;38.72;96616.31;5024866;28;20426;-70
2023/07/17 08:49:14;;;;;;;19.60;4.80;;;;;;;26.95;38.61;96611.66;5021358;28;20433;-71
2023/07/17 08:51:39;;;;;;;8.43;4.20;;;;;;;27.63;37.06;96616.00;5028100;28;20773;-72
2023/07/17 08:54:04;;;;;;;17.87;5.17;;;;;;;27.92;36.99;96607.41;5023557;28;20453;-72
2023/07/17 08:56:31;;;;;;;12.53;5.50;;;;;;;28.15;37.09;96609.38;5024813;28;20203;-72
2023/07/17 08:58:56;;;;;;;16.17;4.93;;;;;;;27.69;37.57;96618.03;5027747;28;20353;-71
2023/07/17 09:01:21;;;;;;;13.37;5.57;;;;;;;27.44;38.46;96617.16;5027653;28;20820;-70
2023/07/17 09:03:51;;;;;;;8.77;4.43;;;;;;;27.48;38.20;96617.69;5031466;28;20195;-72
2023/07/17 09:06:24;;;;;;;10.67;4.33;;;;;;;27.44;37.48;96601.00;5027431;28;20178;-70
2023/07/17 09:08:51;;;;;;;20.43;5.17;;;;;;;27.94;37.66;96612.63;5022232;28;21358;-72
2023/07/17 09:11:18;;;;;;;13.30;4.40;;;;;;;28.06;36.33;96606.72;5026233;28;20418;-73
2023/07/17 09:13:45;;;;;;;5.43;3.87;;;;;;;27.75;36.88;96609.25;5022873;28;20536;-71
2023/07/17 09:16:22;;;;;;;11.87;4.37;;;;;;;27.87;37.23;96609.75;5024815;28;21011;-71
2023/07/17 09:18:48;;;;;;;24.23;5.10;;;;;;;27.53;37.59;96609.94;5018183;28;20483;-72
2023/07/17 09:21:15;;;;;;;14.97;5.27;;;;;;;28.03;36.40;96609.75;5021415;28;21047;-70
2023/07/17 09:23:46;;;;;;;14.80;4.47;;;;;;;27.59;36.93;96604.72;5027685;28;20437;-73
2023/07/17 09:26:14;;;;;;;7.87;4.23;;;;;;;27.72;36.87;96606.06;5015696;28;20435;-70
2023/07/17 09:29:00;;;;;;;10.40;4.50;;;;;;;27.95;36.65;96601.69;5025853;28;20425;-69
2023/07/17 09:31:27;;;;;;;10.33;4.70;;;;;;;28.25;35.03;96608.19;5025376;28;20429;-70
2023/07/17 09:33:57;;;;;;;7.03;4.57;;;;;;;27.88;35.11;96614.16;5026687;28;20525;-70
2023/07/17 09:36:23;;;;;;;16.40;7.40;;;;;;;27.40;35.08;96608.59;5023853;28;20465;-70
2023/07/17 09:38:53;;;;;;;21.50;9.20;;;;;;;28.10;34.30;96609.06;5026621;28;20464;-71
2023/07/17 09:41:23;;;;;;;6.50;5.00;;;;;;;28.42;33.61;96611.69;5024270;28;20183;-70
2023/07/17 09:44:03;;;;;;;6.53;4.50;;;;;;;28.62;32.44;96603.19;5025736;28;20449;-71
2023/07/17 09:46:30;;;;;;;24.20;5.80;;;;;;;28.55;32.21;96610.31;5021614;28;20425;-70
2023/07/17 09:48:56;;;;;;;29.87;6.47;;;;;;;28.52;31.83;96614.22;5025743;28;20445;-69
2023/07/17 09:51:22;;;;;;;5.30;3.53;;;;;;;28.61;31.20;96617.72;5023501;28;20409;-71
2023/07/17 09:53:48;;;;;;;19.53;6.30;;;;;;;28.25;31.54;96604.63;5026611;28;20453;-69
2023/07/17 09:56:18;;;;;;;22.50;5.20;;;;;;;27.97;32.25;96607.75;5026601;28;20853;-70
2023/07/17 09:58:50;;;;;;;9.27;4.57;;;;;;;27.96;32.46;96608.75;5025055;28;20271;-69
2023/07/17 10:01:19;;;;;;;7.60;4.40;;;;;;;28.08;31.24;96604.66;5017401;28;20845;-69
2023/07/17 10:03:49;;;;;;;8.60;4.67;;;;;;;28.39;30.86;96603.06;5026508;28;20422;-70
2023/07/17 10:06:19;;;;;;;9.20;4.80;;;;;;;28.27;30.77;96603.44;5026955;28;20402;-69
2023/07/17 10:08:46;;;;;;;27.57;5.40;;;;;;;28.31;31.65;96606.66;5024633;28;20441;-69
2023/07/17 10:11:14;;;;;;;14.13;4.97;;;;;;;28.58;31.92;96602.69;5019524;28;20417;-70
2023/07/17 10:13:41;;;;;;;9.47;5.13;;;;;;;28.74;31.10;96604.50;5025972;28;20457;-72
2023/07/17 10:16:06;;;;;;;27.90;7.07;;;;;;;28.82;30.27;96601.75;5015639;28;20438;-71
2023/07/17 10:18:32;;;;;;;17.97;4.30;;;;;;;28.90;30.43;96599.00;5023640;28;20437;-71
2023/07/17 10:21:00;;;;;;;9.57;4.40;;;;;;;29.07;30.16;96604.34;5026176;28;20540;-70
2023/07/17 10:23:29;;;;;;;7.63;4.10;;;;;;;28.79;30.83;96601.25;5008437;28;20286;-69
2023/07/17 10:26:16;;;;;;;8.60;4.53;;;;;;;28.65;30.39;96589.34;5026762;28;20410;-71
2023/07/17 10:28:44;;;;;;;35.50;5.93;;;;;;;28.70;30.79;96590.50;5025457;28;20429;-71
2023/07/17 10:31:18;;;;;;;18.50;5.33;;;;;;;28.44;30.74;96593.47;5026353;28;20425;-70
2023/07/17 10:33:48;;;;;;;13.27;5.10;;;;;;;28.54;30.85;96582.47;5025176;28;20512;-70
2023/07/17 10:36:14;;;;;;;8.53;4.43;;;;;;;28.93;31.20;96589.69;5023742;28;20465;-70
2023/07/17 10:38:41;;;;;;;14.53;4.57;;;;;;;28.67;29.61;96593.53;5026385;28;20410;-70
2023/07/17 10:41:12;;;;;;;17.03;5.50;;;;;;;28.61;29.99;96580.75;5025475;28;20182;-69
2023/07/17 10:43:49;;;;;;;8.93;4.77;;;;;;;28.50;30.62;96578.44;5017773;28;20445;-70
2023/07/17 10:46:14;;;;;;;7.23;4.37;;;;;;;28.54;30.52;96570.81;5024725;28;20471;-71
2023/07/17 10:48:40;;;;;;;10.23;4.90;;;;;;;28.62;30.31;96568.09;5025697;28;20413;-70
2023/07/17 10:51:10;;;;;;;9.73;4.47;;;;;;;28.18;31.79;96566.72;5026328;28;20213;-74
2023/07/17 10:53:35;;;;;;;22.67;5.97;;;;;;;28.20;31.44;96563.84;5026981;28;20437;-70
2023/07/17 10:56:01;;;;;;;19.77;5.63;;;;;;;28.03;32.08;96563.88;5025548;28;21128;-71
2023/07/17 10:58:26;;;;;;;14.30;4.77;;;;;;;28.17;32.10;96558.78;5026339;28;20170;-69
2023/07/17 11:00:52;;;;;;;4.73;4.27;;;;;;;28.48;31.72;96557.00;5016906;28;20213;-71
2023/07/17 11:03:22;;;;;;;6.50;4.70;;;;;;;28.40;31.50;96550.78;5025901;28;20288;-70
2023/07/17 11:05:48;;;;;;;9.33;4.40;;;;;;;27.77;32.51;96547.06;5024251;28;20171;-71
2023/07/17 11:08:14;;;;;;;13.67;4.90;;;;;;;28.00;32.37;96541.81;5025598;28;20448;-69
2023/07/17 11:10:44;;;;;;;28.23;6.30;;;;;;;28.02;32.52;96545.19;5021862;28;21289;-71
2023/07/17 11:13:09;;;;;;;11.10;4.80;;;;;;;28.25;32.21;96547.97;5020721;28;20195;-70
2023/07/17 11:15:36;;;;;;;8.40;5.33;;;;;;;28.13;32.24;96543.97;5023896;28;20433;-70
2023/07/17 11:18:04;;;;;;;14.57;5.60;;;;;;;28.18;32.00;96550.53;5025253;28;20198;-70
2023/07/17 11:20:31;;;;;;;23.83;7.10;;;;;;;28.32;32.09;96543.53;5025772;28;20463;-71
2023/07/17 11:22:57;;;;;;;13.00;6.00;;;;;;;28.56;31.72;96545.34;5025446;28;21025;-69
2023/07/17 11:25:25;;;;;;;11.97;5.10;;;;;;;28.59;31.92;96547.69;5024734;28;21028;-70